sensor_id;sensor_type;location;lat;lon;timestamp;pressure;altitude;pressure_sealevel;temperature;humidity
78584;BME280;67880;46.082;18.234;2023-05-07T00:00:02;99590.78;;;16.62;59.18
78584;BME280;67880;46.082;18.234;2023-05-07T00:00:46;99589.75;;;16.63;59.27
78584;BME280;67880;46.082;18.234;2023-05-07T00:01:16;99593.69;;;16.60;59.04
78584;BME280;67880;46.082;18.234;2023-05-07T00:01:47;99594.50;;;16.61;59.44
78584;BME280;67880;46.082;18.234;2023-05-07T00:02:18;99592.22;;;16.58;59.55
78584;BME280;67880;46.082;18.234;2023-05-07T00:02:48;99595.56;;;16.60;59.21
78584;BME280;67880;46.082;18.234;2023-05-07T00:03:19;99593.31;;;16.63;59.56
78584;BME280;67880;46.082;18.234;2023-05-07T00:03:50;99593.31;;;16.63;59.39
78584;BME280;67880;46.082;18.234;2023-05-07T00:04:21;99590.78;;;16.62;59.32
78584;BME280;67880;46.082;18.234;2023-05-07T00:04:52;99589.75;;;16.63;59.17
78584;BME280;67880;46.082;18.234;2023-05-07T00:05:22;99590.97;;;16.60;59.74
78584;BME280;67880;46.082;18.234;2023-05-07T00:05:53;99590.78;;;16.62;59.20
78584;BME280;67880;46.082;18.234;2023-05-07T00:06:23;99587.03;;;16.63;59.35
78584;BME280;67880;46.082;18.234;2023-05-07T00:06:56;99583.69;;;16.61;59.00
78584;BME280;67880;46.082;18.234;2023-05-07T00:07:26;99587.88;;;16.63;59.14
78584;BME280;67880;46.082;18.234;2023-05-07T00:07:57;99582.66;;;16.62;59.34
78584;BME280;67880;46.082;18.234;2023-05-07T00:08:28;99583.88;;;16.59;59.41
78584;BME280;67880;46.082;18.234;2023-05-07T00:08:58;99585.34;;;16.55;59.93
78584;BME280;67880;46.082;18.234;2023-05-07T00:09:30;99587.63;;;16.58;59.64
78584;BME280;67880;46.082;18.234;2023-05-07T00:10:01;99590.56;;;16.57;59.57
78584;BME280;67880;46.082;18.234;2023-05-07T00:10:31;99580.34;;;16.59;59.33
78584;BME280;67880;46.082;18.234;2023-05-07T00:11:02;99584.94;;;16.58;59.32
78584;BME280;67880;46.082;18.234;2023-05-07T00:11:33;99581.78;;;16.61;59.15
78584;BME280;67880;46.082;18.234;2023-05-07T00:12:04;99591.19;;;16.59;59.19
78584;BME280;67880;46.082;18.234;2023-05-07T00:12:35;99579.72;;;16.57;59.25
78584;BME280;67880;46.082;18.234;2023-05-07T00:13:05;99584.09;;;16.58;58.83
78584;BME280;67880;46.082;18.234;2023-05-07T00:13:36;99589.09;;;16.61;58.99
78584;BME280;67880;46.082;18.234;2023-05-07T00:14:07;99585.38;;;16.62;58.80
78584;BME280;67880;46.082;18.234;2023-05-07T00:14:37;99587.88;;;16.63;58.93
78584;BME280;67880;46.082;18.234;2023-05-07T00:15:08;99591.41;;;16.64;58.95
78584;BME280;67880;46.082;18.234;2023-05-07T00:15:39;99584.50;;;16.61;59.04
78584;BME280;67880;46.082;18.234;2023-05-07T00:16:10;99593.69;;;16.60;59.42
78584;BME280;67880;46.082;18.234;2023-05-07T00:16:56;99590.34;;;16.58;59.47
78584;BME280;67880;46.082;18.234;2023-05-07T00:17:27;99586.59;;;16.59;59.26
78584;BME280;67880;46.082;18.234;2023-05-07T00:17:57;99589.31;;;16.59;59.58
78584;BME280;67880;46.082;18.234;2023-05-07T00:18:29;99590.34;;;16.58;59.39
78584;BME280;67880;46.082;18.234;2023-05-07T00:19:00;99590.56;;;16.57;59.62
78584;BME280;67880;46.082;18.234;2023-05-07T00:19:31;99590.56;;;16.57;59.46
78584;BME280;67880;46.082;18.234;2023-05-07T00:20:03;99588.06;;;16.55;59.84
78584;BME280;67880;46.082;18.234;2023-05-07T00:20:35;99588.88;;;16.56;59.69
78584;BME280;67880;46.082;18.234;2023-05-07T00:21:05;99588.06;;;16.55;59.47
78584;BME280;67880;46.082;18.234;2023-05-07T00:21:36;99592.22;;;16.58;58.87
78584;BME280;67880;46.082;18.234;2023-05-07T00:22:08;99591.19;;;16.59;58.97
78584;BME280;67880;46.082;18.234;2023-05-07T00:22:39;99592.63;;;16.61;58.42
78584;BME280;67880;46.082;18.234;2023-05-07T00:23:10;99578.25;;;16.61;58.26
78584;BME280;67880;46.082;18.234;2023-05-07T00:23:40;99588.13;;;16.68;57.39
78584;BME280;67880;46.082;18.234;2023-05-07T00:24:11;99589.41;;;16.72;56.75
78584;BME280;67880;46.082;18.234;2023-05-07T00:24:42;99586.94;;;16.77;56.37
78584;BME280;67880;46.082;18.234;2023-05-07T00:25:12;99587.56;;;16.79;56.66
78584;BME280;67880;46.082;18.234;2023-05-07T00:25:43;99592.59;;;16.83;56.34
78584;BME280;67880;46.082;18.234;2023-05-07T00:26:13;99589.47;;;16.86;56.52
78584;BME280;67880;46.082;18.234;2023-05-07T00:26:44;99596.38;;;16.88;56.60
78584;BME280;67880;46.082;18.234;2023-05-07T00:27:16;99590.53;;;16.91;56.73
78584;BME280;67880;46.082;18.234;2023-05-07T00:27:46;99583.25;;;16.92;57.63
78584;BME280;67880;46.082;18.234;2023-05-07T00:28:17;99591.59;;;16.90;57.32
78584;BME280;67880;46.082;18.234;2023-05-07T00:28:47;99592.41;;;16.91;57.76
78584;BME280;67880;46.082;18.234;2023-05-07T00:29:18;99585.31;;;16.90;58.05
78584;BME280;67880;46.082;18.234;2023-05-07T00:29:49;99585.53;;;16.88;57.57
78584;BME280;67880;46.082;18.234;2023-05-07T00:30:19;99592.63;;;16.89;57.65
78584;BME280;67880;46.082;18.234;2023-05-07T00:30:50;99584.69;;;16.88;57.95
78584;BME280;67880;46.082;18.234;2023-05-07T00:31:21;99587.56;;;16.79;58.03
78584;BME280;67880;46.082;18.234;2023-05-07T00:31:51;99592.34;;;16.77;57.91
78584;BME280;67880;46.082;18.234;2023-05-07T00:32:24;99587.38;;;16.81;58.62
78584;BME280;67880;46.082;18.234;2023-05-07T00:32:54;99581.31;;;16.79;58.62
78584;BME280;67880;46.082;18.234;2023-05-07T00:34:32;99589.66;;;16.77;58.40
78584;BME280;67880;46.082;18.234;2023-05-07T00:35:03;99591.91;;;16.74;58.42
78584;BME280;67880;46.082;18.234;2023-05-07T00:35:34;99593.59;;;16.75;58.16
78584;BME280;67880;46.082;18.234;2023-05-07T00:36:05;99593.59;;;16.75;57.80
78584;BME280;67880;46.082;18.234;2023-05-07T00:36:36;99592.56;;;16.76;57.61
78584;BME280;67880;46.082;18.234;2023-05-07T00:37:06;99590.69;;;16.76;57.77
78584;BME280;67880;46.082;18.234;2023-05-07T00:37:40;99584.84;;;16.79;57.49
78584;BME280;67880;46.082;18.234;2023-05-07T00:38:10;99590.72;;;16.83;57.68
78584;BME280;67880;46.082;18.234;2023-05-07T00:38:41;99583.00;;;16.87;57.61
78584;BME280;67880;46.082;18.234;2023-05-07T00:39:12;99584.69;;;16.88;57.64
78584;BME280;67880;46.082;18.234;2023-05-07T00:39:42;99591.34;;;16.85;57.65
78584;BME280;67880;46.082;18.234;2023-05-07T00:40:13;99590.31;;;16.86;57.76
78584;BME280;67880;46.082;18.234;2023-05-07T00:40:44;99593.84;;;16.87;57.58
78584;BME280;67880;46.082;18.234;2023-05-07T00:41:15;99591.97;;;16.87;57.85
78584;BME280;67880;46.082;18.234;2023-05-07T00:41:46;99591.13;;;16.87;57.71
78584;BME280;67880;46.082;18.234;2023-05-07T00:42:17;99598.44;;;16.86;57.98
78584;BME280;67880;46.082;18.234;2023-05-07T00:42:48;99586.97;;;16.84;58.35
78584;BME280;67880;46.082;18.234;2023-05-07T00:43:19;99591.13;;;16.87;57.82
78584;BME280;67880;46.082;18.234;2023-05-07T00:43:50;99591.34;;;16.85;58.15
78584;BME280;67880;46.082;18.234;2023-05-07T00:44:21;99594.50;;;16.89;58.34
78584;BME280;67880;46.082;18.234;2023-05-07T00:44:52;99593.47;;;16.90;58.20
78584;BME280;67880;46.082;18.234;2023-05-07T00:45:26;99591.38;;;16.92;58.17
78584;BME280;67880;46.082;18.234;2023-05-07T00:45:57;99596.16;;;16.90;58.03
78584;BME280;67880;46.082;18.234;2023-05-07T00:46:28;99591.38;;;16.92;58.01
78584;BME280;67880;46.082;18.234;2023-05-07T00:47:02;99593.47;;;16.90;58.31
78584;BME280;67880;46.082;18.234;2023-05-07T00:47:34;99599.94;;;16.89;58.15
78584;BME280;67880;46.082;18.234;2023-05-07T00:48:04;99597.00;;;16.90;58.56
78584;BME280;67880;46.082;18.234;2023-05-07T00:48:35;99591.78;;;16.89;58.08
78584;BME280;67880;46.082;18.234;2023-05-07T00:49:06;99598.69;;;16.91;58.58
78584;BME280;67880;46.082;18.234;2023-05-07T00:49:39;99601.97;;;16.87;58.13
78584;BME280;67880;46.082;18.234;2023-05-07T00:50:11;99603.22;;;16.84;58.41
78584;BME280;67880;46.082;18.234;2023-05-07T00:50:43;99599.06;;;16.82;58.60
78584;BME280;67880;46.082;18.234;2023-05-07T00:51:14;99600.50;;;16.77;59.47
78584;BME280;67880;46.082;18.234;2023-05-07T00:52:00;99601.75;;;16.75;59.68
78584;BME280;67880;46.082;18.234;2023-05-07T00:52:31;99601.53;;;16.76;59.61
78584;BME280;67880;46.082;18.234;2023-05-07T00:53:01;99603.41;;;16.76;59.85
78584;BME280;67880;46.082;18.234;2023-05-07T00:53:32;99604.03;;;16.78;59.54
78584;BME280;67880;46.082;18.234;2023-05-07T00:54:04;99599.06;;;16.82;59.15
78584;BME280;67880;46.082;18.234;2023-05-07T00:54:35;99606.78;;;16.85;59.12
78584;BME280;67880;46.082;18.234;2023-05-07T00:55:06;99600.72;;;16.83;58.84
78584;BME280;67880;46.082;18.234;2023-05-07T00:55:38;99602.19;;;16.85;58.73
78584;BME280;67880;46.082;18.234;2023-05-07T00:56:09;99600.09;;;16.87;58.69
78584;BME280;67880;46.082;18.234;2023-05-07T00:56:40;99603.69;;;16.88;58.50
78584;BME280;67880;46.082;18.234;2023-05-07T00:57:11;99598.47;;;16.93;58.40
78584;BME280;67880;46.082;18.234;2023-05-07T00:57:42;99600.75;;;16.89;58.19
78584;BME280;67880;46.082;18.234;2023-05-07T00:58:14;99598.69;;;16.91;58.12
78584;BME280;67880;46.082;18.234;2023-05-07T00:58:45;99593.69;;;16.95;58.47
78584;BME280;67880;46.082;18.234;2023-05-07T00:59:15;99598.06;;;16.96;58.51
78584;BME280;67880;46.082;18.234;2023-05-07T00:59:46;99597.63;;;16.92;58.18
78584;BME280;67880;46.082;18.234;2023-05-07T01:00:17;99597.03;;;16.97;58.00
78584;BME280;67880;46.082;18.234;2023-05-07T01:00:48;99596.63;;;17.00;58.16
78584;BME280;67880;46.082;18.234;2023-05-07T01:01:18;99598.09;;;17.02;58.41
78584;BME280;67880;46.082;18.234;2023-05-07T01:01:49;99597.28;;;17.02;58.25
78584;BME280;67880;46.082;18.234;2023-05-07T01:02:20;99596.00;;;17.04;57.58
78584;BME280;67880;46.082;18.234;2023-05-07T01:02:50;99596.00;;;17.04;57.52
78584;BME280;67880;46.082;18.234;2023-05-07T01:03:21;99595.81;;;17.06;57.40
78584;BME280;67880;46.082;18.234;2023-05-07T01:03:53;99590.00;;;17.09;57.20
78584;BME280;67880;46.082;18.234;2023-05-07T01:04:23;99591.66;;;17.10;56.53
78584;BME280;67880;46.082;18.234;2023-05-07T01:04:55;99599.19;;;17.15;57.18
78584;BME280;67880;46.082;18.234;2023-05-07T01:05:27;99599.19;;;17.15;57.33
78584;BME280;67880;46.082;18.234;2023-05-07T01:06:00;99598.16;;;17.16;57.66
78584;BME280;67880;46.082;18.234;2023-05-07T01:06:32;99592.72;;;17.16;57.29
78584;BME280;67880;46.082;18.234;2023-05-07T01:07:03;99597.72;;;17.19;57.36
78584;BME280;67880;46.082;18.234;2023-05-07T01:07:36;99600.44;;;17.19;57.12
78584;BME280;67880;46.082;18.234;2023-05-07T01:08:07;99591.28;;;17.20;57.60
78584;BME280;67880;46.082;18.234;2023-05-07T01:08:39;99589.41;;;17.20;57.41
78584;BME280;67880;46.082;18.234;2023-05-07T01:09:11;99590.25;;;17.21;57.52
78584;BME280;67880;46.082;18.234;2023-05-07T01:09:43;99591.69;;;17.23;57.45
78584;BME280;67880;46.082;18.234;2023-05-07T01:10:15;99591.69;;;17.23;57.92
78584;BME280;67880;46.082;18.234;2023-05-07T01:10:46;99591.50;;;17.25;57.73
78584;BME280;67880;46.082;18.234;2023-05-07T01:11:18;99593.38;;;17.24;57.41
78584;BME280;67880;46.082;18.234;2023-05-07T01:11:53;99589.81;;;17.24;57.12
78584;BME280;67880;46.082;18.234;2023-05-07T01:12:26;99589.19;;;17.22;57.48
78584;BME280;67880;46.082;18.234;2023-05-07T01:14:08;99591.28;;;17.20;57.59
78584;BME280;67880;46.082;18.234;2023-05-07T01:14:39;99583.75;;;17.15;58.31
78584;BME280;67880;46.082;18.234;2023-05-07T01:15:11;99585.41;;;17.16;58.29
78584;BME280;67880;46.082;18.234;2023-05-07T01:15:43;99588.13;;;17.16;58.25
78584;BME280;67880;46.082;18.234;2023-05-07T01:16:14;99588.13;;;17.16;58.58
78584;BME280;67880;46.082;18.234;2023-05-07T01:16:45;99594.84;;;17.20;58.53
78584;BME280;67880;46.082;18.234;2023-05-07T01:17:17;99590.44;;;17.19;58.83
78584;BME280;67880;46.082;18.234;2023-05-07T01:17:47;99593.13;;;17.19;58.92
78584;BME280;67880;46.082;18.234;2023-05-07T01:18:18;99589.19;;;17.15;59.05
78584;BME280;67880;46.082;18.234;2023-05-07T01:18:49;99592.09;;;17.14;58.56
78584;BME280;67880;46.082;18.234;2023-05-07T01:19:20;99592.28;;;17.12;58.61
78584;BME280;67880;46.082;18.234;2023-05-07T01:19:51;99593.31;;;17.11;58.22
78584;BME280;67880;46.082;18.234;2023-05-07T01:20:23;99590.22;;;17.14;58.45
78584;BME280;67880;46.082;18.234;2023-05-07T01:20:56;99585.84;;;17.13;58.23
78584;BME280;67880;46.082;18.234;2023-05-07T01:21:32;99591.06;;;17.15;57.97
78584;BME280;67880;46.082;18.234;2023-05-07T01:22:08;99589.19;;;17.15;57.93
78584;BME280;67880;46.082;18.234;2023-05-07T01:22:39;99592.72;;;17.16;57.97
78584;BME280;67880;46.082;18.234;2023-05-07T01:23:11;99591.06;;;17.15;58.10
78584;BME280;67880;46.082;18.234;2023-05-07T01:23:42;99590.88;;;17.23;57.66
78584;BME280;67880;46.082;18.234;2023-05-07T01:24:14;99595.88;;;17.26;58.03
78584;BME280;67880;46.082;18.234;2023-05-07T01:24:45;99587.56;;;17.27;57.66
78584;BME280;67880;46.082;18.234;2023-05-07T01:25:16;99590.06;;;17.29;57.59
78584;BME280;67880;46.082;18.234;2023-05-07T01:25:52;99591.72;;;17.30;57.29
78584;BME280;67880;46.082;18.234;2023-05-07T01:26:23;99592.16;;;17.27;57.43
78584;BME280;67880;46.082;18.234;2023-05-07T01:26:54;99598.41;;;17.27;57.71
78584;BME280;67880;46.082;18.234;2023-05-07T01:27:25;99598.41;;;17.27;57.94
78584;BME280;67880;46.082;18.234;2023-05-07T01:27:56;99594.00;;;17.20;58.14
78584;BME280;67880;46.082;18.234;2023-05-07T01:28:27;99601.09;;;17.21;58.16
78584;BME280;67880;46.082;18.234;2023-05-07T01:28:57;99587.72;;;17.19;58.31
78584;BME280;67880;46.082;18.234;2023-05-07T01:29:28;99596.91;;;17.25;58.45
78584;BME280;67880;46.082;18.234;2023-05-07T01:29:59;99584.00;;;17.27;58.57
78584;BME280;67880;46.082;18.234;2023-05-07T01:30:30;99593.78;;;17.21;58.35
78584;BME280;67880;46.082;18.234;2023-05-07T01:31:03;99589.19;;;17.15;58.46
78584;BME280;67880;46.082;18.234;2023-05-07T01:31:35;99591.28;;;17.13;58.98
78584;BME280;67880;46.082;18.234;2023-05-07T01:32:07;99588.72;;;17.12;59.04
78584;BME280;67880;46.082;18.234;2023-05-07T01:32:56;99593.53;;;17.10;58.90
78584;BME280;67880;46.082;18.234;2023-05-07T01:33:33;99595.00;;;17.12;58.78
78584;BME280;67880;46.082;18.234;2023-05-07T01:34:21;99589.41;;;17.14;58.73
78584;BME280;67880;46.082;18.234;2023-05-07T01:34:52;99585.84;;;17.13;58.33
78584;BME280;67880;46.082;18.234;2023-05-07T01:35:29;99585.63;;;17.08;58.14
78584;BME280;67880;46.082;18.234;2023-05-07T01:36:01;99586.03;;;17.12;58.45
78584;BME280;67880;46.082;18.234;2023-05-07T01:36:34;99585.84;;;17.13;58.25
78584;BME280;67880;46.082;18.234;2023-05-07T01:37:07;99584.81;;;17.14;58.08
78584;BME280;67880;46.082;18.234;2023-05-07T01:37:40;99585.63;;;17.15;58.19
78584;BME280;67880;46.082;18.234;2023-05-07T01:38:12;99581.25;;;17.14;58.61
78584;BME280;67880;46.082;18.234;2023-05-07T01:38:43;99582.25;;;17.13;58.41
78584;BME280;67880;46.082;18.234;2023-05-07T01:39:15;99587.06;;;17.11;58.17
78584;BME280;67880;46.082;18.234;2023-05-07T01:39:47;99587.28;;;17.09;58.22
78584;BME280;67880;46.082;18.234;2023-05-07T01:40:19;99581.84;;;17.09;58.54
78584;BME280;67880;46.082;18.234;2023-05-07T01:40:50;99588.13;;;17.10;58.63
78584;BME280;67880;46.082;18.234;2023-05-07T01:41:21;99580.19;;;17.08;58.47
78584;BME280;67880;46.082;18.234;2023-05-07T01:41:54;99576.19;;;17.04;58.53
78584;BME280;67880;46.082;18.234;2023-05-07T01:42:26;99585.38;;;17.03;58.73
78584;BME280;67880;46.082;18.234;2023-05-07T01:42:57;99586.41;;;17.02;58.64
78584;BME280;67880;46.082;18.234;2023-05-07T01:43:29;99572.84;;;17.02;59.06
78584;BME280;67880;46.082;18.234;2023-05-07T01:44:01;99580.16;;;17.01;58.41
78584;BME280;67880;46.082;18.234;2023-05-07T01:44:33;99586.19;;;16.97;58.56
78584;BME280;67880;46.082;18.234;2023-05-07T01:45:05;99572.00;;;16.95;58.86
78584;BME280;67880;46.082;18.234;2023-05-07T01:45:35;99572.00;;;16.95;58.43
78584;BME280;67880;46.082;18.234;2023-05-07T01:46:08;99581.81;;;16.96;58.79
78584;BME280;67880;46.082;18.234;2023-05-07T01:46:40;99579.94;;;16.96;58.36
78584;BME280;67880;46.082;18.234;2023-05-07T01:47:11;99574.06;;;16.93;58.35
78584;BME280;67880;46.082;18.234;2023-05-07T01:47:43;99576.97;;;16.91;58.43
78584;BME280;67880;46.082;18.234;2023-05-07T01:48:15;99576.16;;;16.91;58.24
78584;BME280;67880;46.082;18.234;2023-05-07T01:48:45;99578.66;;;16.92;58.15
78584;BME280;67880;46.082;18.234;2023-05-07T01:49:17;99579.69;;;16.91;58.54
78584;BME280;67880;46.082;18.234;2023-05-07T01:49:48;99582.41;;;16.91;58.55
78584;BME280;67880;46.082;18.234;2023-05-07T01:50:19;99577.41;;;16.88;58.81
78584;BME280;67880;46.082;18.234;2023-05-07T01:50:51;99579.47;;;16.86;58.79
78584;BME280;67880;46.082;18.234;2023-05-07T01:51:22;99585.09;;;16.85;58.76
78584;BME280;67880;46.082;18.234;2023-05-07T01:51:53;99585.50;;;16.82;59.23
78584;BME280;67880;46.082;18.234;2023-05-07T01:52:23;99584.00;;;16.79;58.81
78584;BME280;67880;46.082;18.234;2023-05-07T01:52:55;99586.94;;;16.77;59.23
78584;BME280;67880;46.082;18.234;2023-05-07T01:53:27;99587.97;;;16.76;59.29
78584;BME280;67880;46.082;18.234;2023-05-07T01:53:58;99591.72;;;16.75;59.09
78584;BME280;67880;46.082;18.234;2023-05-07T01:54:29;99584.81;;;16.73;59.08
78584;BME280;67880;46.082;18.234;2023-05-07T01:54:59;99580.66;;;16.70;59.13
78584;BME280;67880;46.082;18.234;2023-05-07T01:55:30;99583.16;;;16.72;59.20
78584;BME280;67880;46.082;18.234;2023-05-07T01:56:01;99584.38;;;16.69;59.12
78584;BME280;67880;46.082;18.234;2023-05-07T01:56:31;99582.03;;;16.66;59.33
78584;BME280;67880;46.082;18.234;2023-05-07T01:57:02;99582.66;;;16.62;59.47
78584;BME280;67880;46.082;18.234;2023-05-07T01:57:33;99586.38;;;16.61;59.38
78584;BME280;67880;46.082;18.234;2023-05-07T01:58:04;99577.22;;;16.55;59.88
78584;BME280;67880;46.082;18.234;2023-05-07T01:58:34;99585.34;;;16.55;59.69
78584;BME280;67880;46.082;18.234;2023-05-07T01:59:05;99586.75;;;16.51;59.90
78584;BME280;67880;46.082;18.234;2023-05-07T01:59:35;99582.19;;;16.51;59.95
78584;BME280;67880;46.082;18.234;2023-05-07T02:00:06;99584.88;;;16.51;60.39
78584;BME280;67880;46.082;18.234;2023-05-07T02:00:39;99578.84;;;16.49;60.22
78584;BME280;67880;46.082;18.234;2023-05-07T02:01:10;99578.38;;;16.46;60.28
78584;BME280;67880;46.082;18.234;2023-05-07T02:01:41;99579.19;;;16.40;60.58
78584;BME280;67880;46.082;18.234;2023-05-07T02:02:12;99587.09;;;16.41;60.06
78584;BME280;67880;46.082;18.234;2023-05-07T02:02:42;99580.84;;;16.41;60.16
78584;BME280;67880;46.082;18.234;2023-05-07T02:03:13;99576.25;;;16.41;60.49
78584;BME280;67880;46.082;18.234;2023-05-07T02:03:44;99580.69;;;16.42;60.09
78584;BME280;67880;46.082;18.234;2023-05-07T02:04:14;99580.69;;;16.42;60.79
78584;BME280;67880;46.082;18.234;2023-05-07T02:04:45;99578.56;;;16.38;60.26
78584;BME280;67880;46.082;18.234;2023-05-07T02:05:16;99584.19;;;16.36;60.56
78584;BME280;67880;46.082;18.234;2023-05-07T02:05:46;99576.44;;;16.33;60.14
78584;BME280;67880;46.082;18.234;2023-05-07T02:06:17;99580.19;;;16.32;60.68
78584;BME280;67880;46.082;18.234;2023-05-07T02:06:47;99580.19;;;16.32;60.43
78584;BME280;67880;46.082;18.234;2023-05-07T02:07:18;99582.88;;;16.32;60.71
78584;BME280;67880;46.082;18.234;2023-05-07T02:07:48;99577.47;;;16.32;60.41
78584;BME280;67880;46.082;18.234;2023-05-07T02:08:19;99574.34;;;16.35;60.30
78584;BME280;67880;46.082;18.234;2023-05-07T02:08:50;99574.34;;;16.35;60.72
78584;BME280;67880;46.082;18.234;2023-05-07T02:10:31;99572.31;;;16.37;60.71
78584;BME280;67880;46.082;18.234;2023-05-07T02:11:02;99567.72;;;16.38;60.63
78584;BME280;67880;46.082;18.234;2023-05-07T02:11:33;99572.47;;;16.36;60.62
78584;BME280;67880;46.082;18.234;2023-05-07T02:12:04;99572.31;;;16.37;60.53
78584;BME280;67880;46.082;18.234;2023-05-07T02:12:35;99564.34;;;16.36;60.65
78584;BME280;67880;46.082;18.234;2023-05-07T02:13:05;99580.44;;;16.37;60.80
78584;BME280;67880;46.082;18.234;2023-05-07T02:13:36;99574.19;;;16.37;60.76
78584;BME280;67880;46.082;18.234;2023-05-07T02:14:07;99575.19;;;16.36;60.64
78584;BME280;67880;46.082;18.234;2023-05-07T02:14:37;99566.03;;;16.37;60.51
78584;BME280;67880;46.082;18.234;2023-05-07T02:15:08;99569.97;;;16.34;60.53
78584;BME280;67880;46.082;18.234;2023-05-07T02:15:39;99571.47;;;16.37;60.30
78584;BME280;67880;46.082;18.234;2023-05-07T02:16:09;99566.69;;;16.39;60.40
78584;BME280;67880;46.082;18.234;2023-05-07T02:16:41;99570.44;;;16.38;60.39
78584;BME280;67880;46.082;18.234;2023-05-07T02:17:12;99570.44;;;16.38;60.62
78584;BME280;67880;46.082;18.234;2023-05-07T02:17:59;99570.44;;;16.38;60.38
78584;BME280;67880;46.082;18.234;2023-05-07T02:18:30;99563.75;;;16.40;60.43
78584;BME280;67880;46.082;18.234;2023-05-07T02:19:02;99570.22;;;16.39;60.37
78584;BME280;67880;46.082;18.234;2023-05-07T02:19:32;99566.69;;;16.39;60.39
78584;BME280;67880;46.082;18.234;2023-05-07T02:20:03;99561.06;;;16.40;60.68
78584;BME280;67880;46.082;18.234;2023-05-07T02:20:35;99576.25;;;16.41;60.49
78584;BME280;67880;46.082;18.234;2023-05-07T02:21:05;99565.25;;;16.43;60.62
78584;BME280;67880;46.082;18.234;2023-05-07T02:21:36;99566.25;;;16.42;60.55
78584;BME280;67880;46.082;18.234;2023-05-07T02:22:07;99559.84;;;16.43;60.40
78584;BME280;67880;46.082;18.234;2023-05-07T02:22:38;99564.00;;;16.45;60.34
78584;BME280;67880;46.082;18.234;2023-05-07T02:23:08;99559.63;;;16.44;60.25
78584;BME280;67880;46.082;18.234;2023-05-07T02:23:39;99568.38;;;16.46;60.09
78584;BME280;67880;46.082;18.234;2023-05-07T02:24:10;99563.59;;;16.48;60.31
78584;BME280;67880;46.082;18.234;2023-05-07T02:24:40;99561.91;;;16.47;60.64
78584;BME280;67880;46.082;18.234;2023-05-07T02:25:11;99568.19;;;16.48;60.50
78584;BME280;67880;46.082;18.234;2023-05-07T02:25:42;99563.78;;;16.47;60.62
78584;BME280;67880;46.082;18.234;2023-05-07T02:26:12;99566.31;;;16.48;60.73
78584;BME280;67880;46.082;18.234;2023-05-07T02:26:43;99556.72;;;16.46;60.93
78584;BME280;67880;46.082;18.234;2023-05-07T02:27:13;99554.63;;;16.48;60.77
78584;BME280;67880;46.082;18.234;2023-05-07T02:27:44;99558.38;;;16.47;60.94
78584;BME280;67880;46.082;18.234;2023-05-07T02:28:15;99566.31;;;16.48;60.18
78584;BME280;67880;46.082;18.234;2023-05-07T02:29:00;99566.13;;;16.50;61.01
78584;BME280;67880;46.082;18.234;2023-05-07T02:29:31;99566.13;;;16.50;60.65
78584;BME280;67880;46.082;18.234;2023-05-07T02:30:02;99555.66;;;16.47;60.32
78584;BME280;67880;46.082;18.234;2023-05-07T02:30:33;99555.28;;;16.50;60.50
78584;BME280;67880;46.082;18.234;2023-05-07T02:31:04;99559.03;;;16.49;60.67
78584;BME280;67880;46.082;18.234;2023-05-07T02:31:35;99558.81;;;16.50;60.38
78584;BME280;67880;46.082;18.234;2023-05-07T02:32:05;99558.63;;;16.52;60.73
78584;BME280;67880;46.082;18.234;2023-05-07T02:32:36;99560.06;;;16.55;60.50
78584;BME280;67880;46.082;18.234;2023-05-07T02:33:07;99560.94;;;16.55;60.36
78584;BME280;67880;46.082;18.234;2023-05-07T02:33:38;99563.66;;;16.55;60.42
78584;BME280;67880;46.082;18.234;2023-05-07T02:34:09;99561.78;;;16.56;60.71
78584;BME280;67880;46.082;18.234;2023-05-07T02:34:39;99555.69;;;16.53;60.46
78584;BME280;67880;46.082;18.234;2023-05-07T02:35:10;99559.91;;;16.56;61.21
78584;BME280;67880;46.082;18.234;2023-05-07T02:35:41;99560.94;;;16.55;60.68
78584;BME280;67880;46.082;18.234;2023-05-07T02:36:12;99553.81;;;16.54;60.86
78584;BME280;67880;46.082;18.234;2023-05-07T02:36:43;99556.16;;;16.57;60.53
78584;BME280;67880;46.082;18.234;2023-05-07T02:37:13;99564.06;;;16.59;60.42
78584;BME280;67880;46.082;18.234;2023-05-07T02:37:44;99556.38;;;16.56;61.06
78584;BME280;67880;46.082;18.234;2023-05-07T02:38:14;99555.69;;;16.53;60.86
78584;BME280;67880;46.082;18.234;2023-05-07T02:38:45;99557.38;;;16.55;61.11
78584;BME280;67880;46.082;18.234;2023-05-07T02:39:16;99558.63;;;16.52;61.33
78584;BME280;67880;46.082;18.234;2023-05-07T02:39:47;99549.66;;;16.51;61.11
78584;BME280;67880;46.082;18.234;2023-05-07T02:40:17;99559.91;;;16.56;61.05
78584;BME280;67880;46.082;18.234;2023-05-07T02:40:48;99550.50;;;16.52;60.92
78584;BME280;67880;46.082;18.234;2023-05-07T02:41:19;99557.19;;;16.56;60.85
78584;BME280;67880;46.082;18.234;2023-05-07T02:41:50;99553.19;;;16.52;61.17
78584;BME280;67880;46.082;18.234;2023-05-07T02:42:21;99553.19;;;16.52;61.21
78584;BME280;67880;46.082;18.234;2023-05-07T02:42:51;99557.81;;;16.58;61.26
78584;BME280;67880;46.082;18.234;2023-05-07T02:43:22;99552.59;;;16.57;60.84
78584;BME280;67880;46.082;18.234;2023-05-07T02:43:53;99549.44;;;16.53;61.14
78584;BME280;67880;46.082;18.234;2023-05-07T02:44:23;99552.59;;;16.57;60.97
78584;BME280;67880;46.082;18.234;2023-05-07T02:45:05;99554.28;;;16.58;60.88
78584;BME280;67880;46.082;18.234;2023-05-07T02:45:36;99551.78;;;16.56;60.81
78584;BME280;67880;46.082;18.234;2023-05-07T02:46:08;99550.94;;;16.56;60.83
78584;BME280;67880;46.082;18.234;2023-05-07T02:46:39;99551.78;;;16.56;60.73
78584;BME280;67880;46.082;18.234;2023-05-07T02:47:10;99542.81;;;16.56;60.75
78584;BME280;67880;46.082;18.234;2023-05-07T02:47:40;99549.69;;;16.58;60.75
78584;BME280;67880;46.082;18.234;2023-05-07T02:48:11;99550.53;;;16.59;60.43